createdAt,value
2023-03-01T00:01:31.511Z,14.67
2023-03-01T00:04:03.703Z,14.38
2023-03-01T00:06:36.445Z,14.07
2023-03-01T00:09:08.998Z,14.20
2023-03-01T00:11:42.042Z,14.15
2023-03-01T00:14:16.261Z,15.50
2023-03-01T00:16:49.074Z,13.15
2023-03-01T00:19:22.991Z,14.82
2023-03-01T00:21:55.764Z,15.60
2023-03-01T00:24:28.275Z,15.27
2023-03-01T00:27:00.242Z,15.30
2023-03-01T00:29:32.984Z,15.10
2023-03-01T00:32:05.626Z,14.82
2023-03-01T00:34:40.745Z,14.35
2023-03-01T00:37:15.102Z,14.63
2023-03-01T00:42:38.014Z,15.50
2023-03-01T00:45:10.926Z,14.50
2023-03-01T00:47:42.925Z,12.52
2023-03-01T00:53:31.309Z,14.53
2023-03-01T00:56:05.715Z,15.00
2023-03-01T00:58:37.768Z,14.65
2023-03-01T01:01:19.341Z,14.30
2023-03-01T01:04:11.691Z,12.55
2023-03-01T01:07:05.423Z,14.13
2023-03-01T01:09:38.075Z,14.02
2023-03-01T01:12:10.855Z,14.07
2023-03-01T01:14:42.832Z,15.07
2023-03-01T01:17:15.572Z,15.20
2023-03-01T01:19:47.877Z,15.50
2023-03-01T01:22:19.793Z,13.98
2023-03-01T01:24:52.503Z,12.60
2023-03-01T01:27:24.406Z,12.98
2023-03-01T01:29:57.177Z,12.88
2023-03-01T01:32:29.517Z,12.43
2023-03-01T01:35:02.284Z,13.02
2023-03-01T01:37:35.979Z,12.00
2023-03-01T01:40:10.908Z,12.13
2023-03-01T01:42:42.790Z,12.85
2023-03-01T01:45:34.945Z,13.10
2023-03-01T01:48:14.811Z,12.95
2023-03-01T01:51:01.260Z,13.25
2023-03-01T01:53:33.643Z,13.20
2023-03-01T01:56:10.186Z,13.73
2023-03-01T01:58:45.048Z,13.00
2023-03-01T02:01:20.630Z,13.63
2023-03-01T02:03:52.978Z,15.55
2023-03-01T02:06:39.615Z,14.75
2023-03-01T02:09:19.864Z,14.27
2023-03-01T02:11:53.530Z,14.40
2023-03-01T02:14:25.468Z,14.20
2023-03-01T02:16:58.370Z,15.10
2023-03-01T02:20:02.210Z,15.35
2023-03-01T02:22:38.382Z,14.20
2023-03-01T02:25:19.557Z,14.87
2023-03-01T02:28:19.462Z,14.75
2023-03-01T02:31:10.811Z,15.50
2023-03-01T02:33:44.019Z,14.90
2023-03-01T02:36:26.213Z,15.75
2023-03-01T02:39:00.437Z,15.07
2023-03-01T02:41:39.998Z,14.27
2023-03-01T02:44:12.051Z,15.02
2023-03-01T02:46:49.668Z,13.70
2023-03-01T02:49:40.445Z,14.05
2023-03-01T02:52:42.281Z,14.53
2023-03-01T02:55:17.841Z,13.40
2023-03-01T02:57:53.735Z,14.68
2023-03-01T03:00:34.550Z,14.13
2023-03-01T03:03:07.404Z,14.75
2023-03-01T03:05:40.148Z,14.23
2023-03-01T03:08:13.015Z,15.18
2023-03-01T03:10:45.676Z,15.43
2023-03-01T03:13:21.079Z,15.07
2023-03-01T03:15:53.093Z,14.77
2023-03-01T03:18:29.190Z,13.77
2023-03-01T03:21:01.488Z,15.50
2023-03-01T03:23:33.439Z,14.90
2023-03-01T03:26:07.721Z,15.27
2023-03-01T03:28:40.900Z,14.52
2023-03-01T03:31:13.698Z,14.17
2023-03-01T03:33:45.611Z,14.43
2023-03-01T03:36:39.698Z,15.10
2023-03-01T03:39:12.072Z,15.55
2023-03-01T03:41:45.304Z,15.63
2023-03-01T03:44:18.508Z,15.53
2023-03-01T03:46:51.321Z,14.20
2023-03-01T03:49:23.265Z,15.25
2023-03-01T03:51:56.167Z,15.35
2023-03-01T03:54:28.433Z,14.38
2023-03-01T03:57:03.876Z,13.87
2023-03-01T03:59:56.880Z,14.30
2023-03-01T04:02:29.649Z,15.80
2023-03-01T04:05:02.820Z,15.57
2023-03-01T04:07:37.459Z,15.05
2023-03-01T04:10:18.816Z,15.17
2023-03-01T04:12:51.546Z,14.50
2023-03-01T04:15:25.077Z,14.35
2023-03-01T04:17:57.828Z,14.23
2023-03-01T04:20:34.986Z,15.57
2023-03-01T04:23:21.866Z,13.43
2023-03-01T04:25:59.152Z,15.73
2023-03-01T04:28:39.006Z,14.98
2023-03-01T04:31:17.780Z,14.75
2023-03-01T04:33:54.260Z,15.13
2023-03-01T04:36:28.836Z,14.13
2023-03-01T04:39:23.516Z,14.88
2023-03-01T04:41:55.493Z,14.85
2023-03-01T04:44:28.880Z,14.68
2023-03-01T04:47:01.537Z,16.17
2023-03-01T04:49:33.456Z,15.83
2023-03-01T04:52:07.064Z,15.35
2023-03-01T04:54:38.953Z,17.05
2023-03-01T04:57:11.675Z,15.90
2023-03-01T04:59:44.950Z,15.93
2023-03-01T05:02:17.236Z,16.03
2023-03-01T05:04:49.533Z,16.30
2023-03-01T05:07:24.864Z,15.80
2023-03-01T05:09:57.216Z,15.63
2023-03-01T05:12:30.887Z,12.15
2023-03-01T05:15:07.873Z,16.80
2023-03-01T05:17:40.605Z,15.25
2023-03-01T05:20:13.284Z,15.15
2023-03-01T05:22:45.627Z,17.40
2023-03-01T05:25:17.897Z,16.63
2023-03-01T05:27:51.018Z,16.47
2023-03-01T05:30:23.931Z,15.30
2023-03-01T05:32:58.399Z,16.17
2023-03-01T05:35:30.932Z,16.67
2023-03-01T05:38:02.862Z,16.30
2023-03-01T05:40:38.156Z,14.53
2023-03-01T05:43:10.557Z,16.30
2023-03-01T05:45:44.386Z,16.38
2023-03-01T05:48:17.171Z,15.88
2023-03-01T05:50:49.503Z,17.00
2023-03-01T05:53:22.143Z,16.03
2023-03-01T05:55:55.372Z,16.63
2023-03-01T05:58:28.348Z,16.83
2023-03-01T06:01:00.723Z,16.48
2023-03-01T06:03:35.659Z,16.45
2023-03-01T06:06:08.031Z,14.97
2023-03-01T06:08:40.334Z,16.67
2023-03-01T06:11:13.133Z,16.65
2023-03-01T06:13:46.866Z,16.17
2023-03-01T06:16:18.745Z,17.77
2023-03-01T06:18:52.729Z,17.03
2023-03-01T06:21:24.746Z,16.80
2023-03-01T06:26:50.806Z,15.43
2023-03-01T06:29:24.256Z,16.38
2023-03-01T06:34:50.634Z,17.77
2023-03-01T06:37:23.633Z,16.30
2023-03-01T06:39:56.360Z,17.33
2023-03-01T06:42:28.249Z,16.98
2023-03-01T06:45:01.317Z,17.73
2023-03-01T06:47:34.755Z,16.05
2023-03-01T06:50:07.780Z,15.82
2023-03-01T06:52:40.062Z,16.80
2023-03-01T06:55:14.906Z,16.73
2023-03-01T06:57:47.152Z,16.73
2023-03-01T07:00:22.003Z,17.55
2023-03-01T07:03:01.445Z,16.30
2023-03-01T07:05:35.203Z,16.88
2023-03-01T07:08:07.379Z,17.30
2023-03-01T07:10:40.782Z,17.53
2023-03-01T07:13:13.076Z,17.23
2023-03-01T07:15:48.170Z,17.58
2023-03-01T07:18:21.641Z,16.85
2023-03-01T07:23:49.873Z,17.03
2023-03-01T07:26:23.650Z,15.90
2023-03-01T07:29:00.901Z,16.75
2023-03-01T07:31:32.874Z,16.80
2023-03-01T07:34:27.891Z,17.63
2023-03-01T07:36:59.965Z,16.47
2023-03-01T07:39:33.852Z,17.38
2023-03-01T07:42:05.741Z,16.27
2023-03-01T07:44:39.629Z,17.00
2023-03-01T07:47:11.772Z,16.08
2023-03-01T07:49:44.974Z,18.17
2023-03-01T07:52:19.953Z,17.25
2023-03-01T07:54:53.290Z,16.92
2023-03-01T07:57:25.768Z,15.90
2023-03-01T07:59:59.319Z,16.08
2023-03-01T08:02:31.709Z,16.73
2023-03-01T08:05:07.101Z,16.60
2023-03-01T08:07:58.061Z,14.75
2023-03-01T08:10:30.142Z,16.05
2023-03-01T08:13:02.868Z,16.75
2023-03-01T08:15:34.786Z,16.70
2023-03-01T08:18:09.864Z,17.00
2023-03-01T08:20:42.601Z,16.55
2023-03-01T08:23:14.536Z,16.40
2023-03-01T08:25:50.443Z,16.95
2023-03-01T08:28:22.679Z,17.03
2023-03-01T08:31:36.839Z,17.35
2023-03-01T08:34:13.441Z,16.80
2023-03-01T08:36:53.404Z,17.08
2023-03-01T08:39:47.825Z,17.10
2023-03-01T08:42:45.109Z,17.87
2023-03-01T08:45:20.361Z,17.83
2023-03-01T08:47:54.408Z,16.48
2023-03-01T08:50:26.778Z,17.63
2023-03-01T08:53:01.726Z,16.38
2023-03-01T08:55:33.816Z,17.97
2023-03-01T08:58:05.811Z,16.92
2023-03-01T09:03:31.973Z,17.13
2023-03-01T09:06:07.931Z,17.17
2023-03-01T09:14:46.953Z,16.75
2023-03-01T09:20:13.972Z,17.52
2023-03-01T09:22:48.537Z,18.47
2023-03-01T09:25:20.374Z,17.02
2023-03-01T09:27:55.782Z,17.13
2023-03-01T09:30:28.635Z,16.27
2023-03-01T09:33:00.752Z,16.88
2023-03-01T09:35:34.986Z,18.17
2023-03-01T09:38:06.884Z,18.73
2023-03-01T09:40:47.935Z,15.93
2023-03-01T09:43:48.275Z,16.52
2023-03-01T09:46:24.254Z,17.25
2023-03-01T09:49:31.368Z,16.53
2023-03-01T09:52:25.657Z,18.23
2023-03-01T09:55:00.619Z,16.98
2023-03-01T09:57:50.662Z,17.13
2023-03-01T10:03:45.046Z,16.40
2023-03-01T10:06:34.451Z,17.17
2023-03-01T10:09:15.031Z,16.13
2023-03-01T10:11:54.522Z,17.15
2023-03-01T10:15:11.660Z,16.23
2023-03-01T10:18:23.676Z,16.67
2023-03-01T10:21:03.460Z,16.65
2023-03-01T10:23:36.878Z,16.15
2023-03-01T10:29:47.386Z,15.85
2023-03-01T10:32:20.480Z,15.77
2023-03-01T10:35:23.622Z,17.38
2023-03-01T10:38:18.336Z,17.13
2023-03-01T10:40:58.497Z,15.65
2023-03-01T10:43:56.824Z,17.48
2023-03-01T10:46:38.378Z,16.60
2023-03-01T10:49:24.288Z,16.60
2023-03-01T10:51:56.805Z,16.15
2023-03-01T10:54:34.292Z,17.23
2023-03-01T10:57:06.860Z,17.63
2023-03-01T10:59:40.491Z,16.03
2023-03-01T11:02:31.421Z,15.57
2023-03-01T11:05:20.714Z,16.58
2023-03-01T11:07:59.601Z,16.63
2023-03-01T11:10:35.726Z,17.52
2023-03-01T11:13:20.674Z,17.37
2023-03-01T11:16:09.059Z,16.38
2023-03-01T11:18:48.193Z,16.77
2023-03-01T11:21:20.469Z,17.70
2023-03-01T11:23:53.693Z,17.05
2023-03-01T11:26:26.022Z,15.73
2023-03-01T11:29:05.661Z,17.05
2023-03-01T11:31:40.475Z,17.25
2023-03-01T11:34:29.641Z,16.92
2023-03-01T11:37:08.651Z,11.80
2023-03-01T11:39:56.384Z,17.20
2023-03-01T11:43:07.392Z,15.13
2023-03-01T11:46:27.577Z,16.77
2023-03-01T11:49:34.340Z,16.45
2023-03-01T11:53:20.345Z,16.88
2023-03-01T11:56:41.141Z,16.60
2023-03-01T11:59:39.096Z,16.45
2023-03-01T12:02:44.435Z,16.50
2023-03-01T12:05:41.642Z,14.73
2023-03-01T12:09:04.391Z,15.25
2023-03-01T12:12:17.869Z,15.77
2023-03-01T12:15:30.917Z,15.50
2023-03-01T12:18:28.435Z,14.63
2023-03-01T12:21:35.970Z,15.05
2023-03-01T12:24:46.350Z,15.77
2023-03-01T12:27:57.059Z,15.17
2023-03-01T12:31:29.570Z,14.77
2023-03-01T12:34:42.000Z,14.05
2023-03-01T12:37:38.708Z,13.85
2023-03-01T12:41:03.243Z,13.95
2023-03-01T12:44:24.911Z,12.10
2023-03-01T12:47:32.292Z,12.77
2023-03-01T12:50:19.629Z,12.80
2023-03-01T12:52:56.872Z,13.48
2023-03-01T12:55:37.636Z,13.00
2023-03-01T12:58:34.130Z,13.35
2023-03-01T13:01:42.582Z,14.43
2023-03-01T13:04:38.137Z,12.90
2023-03-01T13:07:49.691Z,13.52
2023-03-01T13:10:47.113Z,12.50
2023-03-01T13:13:26.430Z,12.68
2023-03-01T13:16:22.644Z,14.38
2023-03-01T13:19:22.082Z,13.23
2023-03-01T13:21:56.430Z,12.95
2023-03-01T13:24:43.781Z,13.50
2023-03-01T13:27:26.044Z,13.48
2023-03-01T13:30:08.319Z,12.73
2023-03-01T13:32:44.532Z,12.68
2023-03-01T13:35:20.503Z,13.13
2023-03-01T13:37:52.461Z,13.10
2023-03-01T13:40:25.087Z,13.32
2023-03-01T13:43:05.640Z,13.07
2023-03-01T13:45:44.474Z,13.82
2023-03-01T13:48:24.961Z,14.30
2023-03-01T13:51:05.018Z,14.43
2023-03-01T13:53:48.749Z,13.20
2023-03-01T13:56:27.551Z,14.15
2023-03-01T13:59:05.280Z,12.93
2023-03-01T14:01:38.560Z,13.27
2023-03-01T14:04:33.294Z,13.10
2023-03-01T14:07:22.493Z,14.30
2023-03-01T14:10:02.338Z,13.52
2023-03-01T14:13:01.256Z,13.63
2023-03-01T14:15:42.681Z,13.38
2023-03-01T14:18:37.366Z,13.80
2023-03-01T14:21:10.480Z,13.03
2023-03-01T14:23:43.174Z,14.20
2023-03-01T14:26:23.390Z,13.07
2023-03-01T14:28:56.448Z,13.70
2023-03-01T14:31:52.559Z,13.77
2023-03-01T14:34:26.057Z,13.30
2023-03-01T14:37:10.522Z,12.43
2023-03-01T14:39:42.403Z,16.80
2023-03-01T14:42:16.283Z,13.27
2023-03-01T14:44:52.148Z,13.30
2023-03-01T14:47:32.021Z,13.77
2023-03-01T14:50:23.878Z,13.55
2023-03-01T14:52:59.963Z,14.60
2023-03-01T14:55:42.419Z,13.13
2023-03-01T14:58:16.880Z,13.80
2023-03-01T15:00:53.977Z,13.23
2023-03-01T15:03:39.296Z,14.05
2023-03-01T15:06:16.428Z,13.48
2023-03-01T15:08:52.794Z,14.20
2023-03-01T15:11:33.256Z,13.82
2023-03-01T15:14:47.350Z,14.45
2023-03-01T15:17:37.941Z,13.07
2023-03-01T15:20:26.611Z,13.93
2023-03-01T15:23:01.032Z,13.50
2023-03-01T15:25:34.480Z,13.48
2023-03-01T15:28:14.194Z,15.75
2023-03-01T15:30:47.035Z,17.42
2023-03-01T15:33:21.360Z,17.98
2023-03-01T15:35:55.382Z,17.23
2023-03-01T15:38:27.615Z,17.58
2023-03-01T15:41:21.676Z,17.43
2023-03-01T15:43:57.867Z,16.60
2023-03-01T15:46:35.804Z,19.33
2023-03-01T15:49:33.063Z,18.67
2023-03-01T15:52:30.224Z,18.90
2023-03-01T15:55:29.530Z,19.13
2023-03-01T15:58:17.094Z,18.35
2023-03-01T16:01:04.201Z,18.65
2023-03-01T16:03:36.906Z,20.05
2023-03-01T16:06:11.914Z,18.88
2023-03-01T16:08:44.586Z,19.97
2023-03-01T16:11:21.742Z,18.98
2023-03-01T16:13:53.733Z,19.75
2023-03-01T16:16:26.445Z,19.15
2023-03-01T16:18:58.411Z,17.80
2023-03-01T16:21:31.318Z,19.27
2023-03-01T16:24:03.698Z,18.02
2023-03-01T16:26:38.585Z,18.77
2023-03-01T16:29:10.622Z,19.17
2023-03-01T16:31:43.698Z,18.88
2023-03-01T16:34:22.794Z,19.00
2023-03-01T16:36:55.425Z,18.05
2023-03-01T16:39:27.539Z,19.00
2023-03-01T16:42:02.546Z,18.17
2023-03-01T16:44:34.936Z,19.52
2023-03-01T16:47:07.163Z,20.13
2023-03-01T16:49:39.097Z,18.35
2023-03-01T16:52:12.632Z,18.55
2023-03-01T16:54:44.591Z,19.95
2023-03-01T16:57:17.601Z,18.80
2023-03-01T16:59:54.480Z,19.17
2023-03-01T17:02:27.578Z,19.40
2023-03-01T17:04:59.560Z,19.27
2023-03-01T17:07:35.510Z,19.85
2023-03-01T17:10:11.541Z,20.13
2023-03-01T17:12:44.314Z,19.40
2023-03-01T17:15:16.288Z,19.35
2023-03-01T17:17:52.208Z,20.08
2023-03-01T17:20:24.156Z,18.90
2023-03-01T17:22:56.771Z,19.55
2023-03-01T17:25:29.244Z,20.07
2023-03-01T17:28:01.943Z,18.17
2023-03-01T17:30:33.955Z,20.02
2023-03-01T17:33:06.554Z,20.80
2023-03-01T17:35:39.132Z,20.85
2023-03-01T17:38:12.120Z,20.23
2023-03-01T17:40:48.354Z,19.60
2023-03-01T17:43:21.006Z,19.83
2023-03-01T17:45:54.596Z,19.77
2023-03-01T17:48:27.484Z,19.23
2023-03-01T17:50:59.757Z,21.03
2023-03-01T17:53:32.073Z,18.98
2023-03-01T17:56:07.323Z,19.73
2023-03-01T17:58:40.043Z,19.70
2023-03-01T18:01:19.267Z,18.98
2023-03-01T18:03:53.001Z,19.97
2023-03-01T18:06:28.437Z,20.05
2023-03-01T18:09:00.688Z,19.80
2023-03-01T18:11:35.818Z,20.02
2023-03-01T18:14:08.441Z,18.90
2023-03-01T18:16:41.077Z,19.20
2023-03-01T18:19:13.175Z,19.80
2023-03-01T18:21:45.700Z,20.38
2023-03-01T18:24:17.971Z,19.45
2023-03-01T18:26:50.639Z,18.63
2023-03-01T18:29:23.002Z,19.57
2023-03-01T18:31:56.134Z,18.77
2023-03-01T18:34:28.771Z,20.20
2023-03-01T18:37:10.220Z,19.58
2023-03-01T18:39:42.365Z,20.63
2023-03-01T18:42:16.652Z,20.93
2023-03-01T18:44:49.119Z,19.33
2023-03-01T18:47:21.399Z,19.02
2023-03-01T18:49:53.789Z,19.00
2023-03-01T18:52:26.391Z,20.20
2023-03-01T18:54:59.084Z,20.07
2023-03-01T18:57:30.936Z,20.77
2023-03-01T19:00:05.129Z,20.08
2023-03-01T19:02:37.087Z,21.30
2023-03-01T19:05:10.061Z,18.80
2023-03-01T19:07:41.926Z,18.80
2023-03-01T19:10:14.533Z,19.60
2023-03-01T19:12:46.834Z,19.23
2023-03-01T19:15:19.918Z,20.48
2023-03-01T19:17:53.615Z,20.60
2023-03-01T19:20:27.118Z,20.30
2023-03-01T19:22:59.013Z,22.55
2023-03-01T19:25:31.985Z,21.45
2023-03-01T19:28:04.346Z,20.48
2023-03-01T19:30:38.644Z,20.55
2023-03-01T19:33:11.570Z,20.67
2023-03-01T19:35:44.346Z,21.00
2023-03-01T19:38:16.263Z,21.40
2023-03-01T19:40:48.865Z,22.30
2023-03-01T19:43:21.455Z,22.42
2023-03-01T19:45:55.589Z,25.47
2023-03-01T19:48:30.003Z,23.00
2023-03-01T19:51:03.215Z,23.98
2023-03-01T19:53:35.424Z,22.35
2023-03-01T19:56:09.259Z,22.60
2023-03-01T19:58:41.590Z,28.07
2023-03-01T20:01:20.209Z,21.65
2023-03-01T20:03:52.216Z,24.52
2023-03-01T20:06:25.930Z,23.25
2023-03-01T20:08:58.736Z,22.38
2023-03-01T20:11:33.094Z,23.70
2023-03-01T20:14:06.745Z,23.20
2023-03-01T20:16:42.338Z,24.50
2023-03-01T20:19:14.649Z,23.50
2023-03-01T20:21:46.530Z,23.80
2023-03-01T20:24:19.532Z,21.77
2023-03-01T20:26:51.411Z,21.83
2023-03-01T20:29:24.023Z,23.25
2023-03-01T20:31:56.949Z,21.13
2023-03-01T20:34:30.099Z,22.85
2023-03-01T20:37:03.855Z,21.50
2023-03-01T20:39:36.877Z,21.45
2023-03-01T20:42:08.824Z,21.88
2023-03-01T20:44:44.332Z,21.17
2023-03-01T20:47:16.441Z,21.55
2023-03-01T20:49:52.331Z,21.50
2023-03-01T20:52:24.379Z,23.85
2023-03-01T20:54:57.049Z,21.23
2023-03-01T20:57:29.330Z,22.38
2023-03-01T21:00:02.172Z,23.38
2023-03-01T21:02:34.556Z,21.03
2023-03-01T21:05:08.111Z,22.23
2023-03-01T21:07:40.051Z,22.23
2023-03-01T21:10:12.937Z,22.27
2023-03-01T21:12:45.074Z,21.88
2023-03-01T21:15:28.647Z,22.67
2023-03-01T21:18:02.164Z,22.00
2023-03-01T21:20:34.730Z,22.85
2023-03-01T21:23:06.638Z,22.27
2023-03-01T21:25:39.203Z,22.38
2023-03-01T21:28:11.785Z,23.37
2023-03-01T21:30:44.355Z,23.10
2023-03-01T21:33:16.223Z,23.02
2023-03-01T21:35:49.167Z,22.60
2023-03-01T21:38:21.144Z,23.63
2023-03-01T21:40:53.684Z,22.57
2023-03-01T21:43:26.025Z,23.10
2023-03-01T21:46:03.799Z,21.90
2023-03-01T21:48:35.998Z,22.10
2023-03-01T21:51:09.268Z,24.98
2023-03-01T21:53:41.863Z,22.67
2023-03-01T21:56:24.684Z,20.85
2023-03-01T21:58:58.452Z,22.05
2023-03-01T22:01:30.985Z,22.40
2023-03-01T22:04:03.691Z,21.40
2023-03-01T22:06:40.398Z,20.57
2023-03-01T22:09:23.152Z,19.75
2023-03-01T22:12:02.468Z,19.80
2023-03-01T22:14:35.807Z,21.45
2023-03-01T22:17:07.756Z,21.33
2023-03-01T22:19:40.460Z,20.27
2023-03-01T22:22:12.373Z,21.63
2023-03-01T22:24:45.068Z,20.88
2023-03-01T22:27:17.404Z,20.75
2023-03-01T22:29:50.376Z,20.52
2023-03-01T22:32:22.525Z,21.67
2023-03-01T22:34:55.300Z,22.33
2023-03-01T22:37:27.411Z,21.00
2023-03-01T22:40:00.112Z,19.88
2023-03-01T22:42:32.188Z,23.15
2023-03-01T22:45:05.426Z,22.43
2023-03-01T22:47:40.160Z,22.15
2023-03-01T22:50:13.737Z,21.13
2023-03-01T22:52:45.810Z,22.08
2023-03-01T22:55:19.046Z,22.38
2023-03-01T22:57:52.059Z,23.00
2023-03-01T23:00:25.037Z,20.95
2023-03-01T23:02:57.485Z,23.02
2023-03-01T23:05:30.164Z,22.55
2023-03-01T23:08:02.438Z,21.95
2023-03-01T23:10:34.907Z,22.07
2023-03-01T23:13:06.788Z,20.85
2023-03-01T23:15:45.006Z,21.75
2023-03-01T23:18:17.258Z,21.98
2023-03-01T23:20:49.175Z,22.40
2023-03-01T23:23:22.202Z,22.53
2023-03-01T23:25:56.224Z,21.58
2023-03-01T23:28:29.691Z,21.63
2023-03-01T23:31:05.130Z,21.30
2023-03-01T23:33:40.829Z,21.02
2023-03-01T23:36:18.814Z,22.37
2023-03-01T23:38:55.718Z,22.52
2023-03-01T23:41:30.186Z,21.23
2023-03-01T23:44:05.207Z,21.77
2023-03-01T23:46:37.812Z,21.75
2023-03-01T23:49:16.368Z,23.30
2023-03-01T23:51:48.772Z,22.17
2023-03-01T23:54:24.431Z,21.15
2023-03-01T23:56:56.421Z,21.85
2023-03-01T23:59:28.968Z,22.15
